Time;durP1;ratioP1;P1;durP2;ratioP2;P2;SDS_P1;SDS_P2;PMS_P1;PMS_P2;Temp;Humidity;BMP_temperature;BMP_pressure;BME280_temperature;BME280_humidity;BME280_pressure;Samples;Min_cycle;Max_cycle;Signal;HPM_P1;HPM_P2
2021/09/20 00:02:25;;;;;;;7.77;5.43;;;11.90;99.90;11.80;96529.00;;;;5085053;28;20223;-69
2021/09/20 00:05:16;;;;;;;8.17;5.77;;;11.90;99.90;11.80;96528.00;;;;5070852;28;20793;-72
2021/09/20 00:08:06;;;;;;;6.30;5.03;;;11.90;99.90;11.80;96528.00;;;;5075245;28;20195;-71
2021/09/20 00:10:55;;;;;;;7.47;5.17;;;11.90;99.90;11.80;96533.00;;;;5075773;28;20207;-75
2021/09/20 00:13:44;;;;;;;6.10;5.53;;;11.90;99.90;11.80;96524.00;;;;5084217;28;20210;-69
2021/09/20 00:16:32;;;;;;;6.23;5.10;;;11.90;99.90;11.70;96531.00;;;;5065800;28;20215;-70
2021/09/20 00:19:21;;;;;;;5.77;5.17;;;11.60;99.90;11.60;96529.00;;;;5065206;28;20269;-72
2021/09/20 00:22:11;;;;;;;5.73;5.20;;;11.90;99.90;11.50;96520.00;;;;5067143;28;20239;-69
2021/09/20 00:25:00;;;;;;;6.17;5.20;;;11.80;99.90;11.60;96529.00;;;;5066747;28;20694;-68
2021/09/20 00:27:49;;;;;;;6.60;5.43;;;11.80;99.90;11.60;96533.00;;;;5066503;28;20210;-69
2021/09/20 00:30:40;;;;;;;5.83;5.17;;;11.80;99.90;11.70;96530.00;;;;5066864;28;20211;-69
2021/09/20 00:33:29;;;;;;;6.97;5.80;;;11.80;99.90;11.70;96534.00;;;;5067091;28;20204;-69
2021/09/20 00:36:18;;;;;;;6.60;5.47;;;11.80;99.90;11.60;96531.00;;;;5067227;28;20197;-70
2021/09/20 00:39:08;;;;;;;5.87;5.27;;;11.80;99.90;11.70;96523.00;;;;5067138;28;20200;-69
2021/09/20 00:41:57;;;;;;;5.37;4.77;;;11.80;99.90;11.70;96522.00;;;;5065134;28;20223;-69
2021/09/20 00:44:46;;;;;;;6.47;5.77;;;11.80;99.90;11.70;96526.00;;;;5066598;28;20210;-74
2021/09/20 00:47:35;;;;;;;6.73;6.03;;;11.80;99.90;11.70;96524.00;;;;5066751;28;20215;-69
2021/09/20 00:50:24;;;;;;;7.90;5.77;;;11.80;99.90;11.70;96514.00;;;;5070458;28;20873;-68
2021/09/20 00:53:13;;;;;;;7.43;5.53;;;11.80;99.90;11.60;96512.00;;;;5079837;28;20224;-70
2021/09/20 00:56:04;;;;;;;5.73;4.93;;;11.80;99.90;11.60;96511.00;;;;5065977;28;20203;-72
2021/09/20 00:58:53;;;;;;;6.97;6.07;;;11.80;99.90;11.60;96502.00;;;;5079374;28;20223;-71
2021/09/20 01:01:42;;;;;;;7.47;5.87;;;11.80;99.90;11.60;96512.00;;;;5085421;28;20254;-68
2021/09/20 01:04:31;;;;;;;7.27;5.90;;;11.70;99.90;11.60;96511.00;;;;5086415;28;20286;-70
2021/09/20 01:07:19;;;;;;;6.50;5.63;;;11.80;99.90;11.70;96504.00;;;;5073298;28;20986;-67
2021/09/20 01:10:11;;;;;;;7.90;6.47;;;11.80;99.90;11.70;96507.00;;;;5085867;28;20206;-69
2021/09/20 01:13:01;;;;;;;11.53;6.20;;;11.80;99.90;11.70;96504.00;;;;5085360;28;20226;-67
2021/09/20 01:15:50;;;;;;;6.97;6.27;;;11.80;99.90;11.60;96509.00;;;;5087183;28;20206;-69
2021/09/20 01:18:38;;;;;;;8.00;6.33;;;11.80;99.90;11.70;96499.00;;;;5086499;28;20226;-70
2021/09/20 01:21:27;;;;;;;6.87;5.57;;;11.80;99.90;11.70;96504.00;;;;5082863;28;20227;-74
2021/09/20 01:24:18;;;;;;;7.17;5.67;;;11.80;99.90;11.70;96498.00;;;;5073962;28;20281;-70
2021/09/20 01:27:07;;;;;;;7.10;5.73;;;11.80;99.90;11.60;96498.00;;;;5074456;28;20574;-70
2021/09/20 01:29:56;;;;;;;6.40;5.70;;;11.80;99.90;11.70;96500.00;;;;5066031;28;20209;-69
2021/09/20 01:32:46;;;;;;;6.33;5.60;;;11.80;99.90;11.60;96496.00;;;;5066896;28;20583;-69
2021/09/20 01:35:35;;;;;;;8.20;5.70;;;11.80;99.90;11.70;96503.00;;;;5066100;28;20218;-70
2021/09/20 01:38:24;;;;;;;6.17;5.57;;;11.80;99.90;11.60;96512.00;;;;5066120;28;20687;-70
2021/09/20 01:41:14;;;;;;;6.47;5.43;;;11.70;99.90;11.60;96520.00;;;;5065737;28;20199;-68
2021/09/20 01:44:03;;;;;;;6.07;5.00;;;11.70;99.90;11.70;96512.00;;;;5065811;28;20207;-72
2021/09/20 01:46:56;;;;;;;7.47;6.63;;;11.70;99.90;11.70;96518.00;;;;5065549;28;20215;-74
2021/09/20 01:49:45;;;;;;;7.40;6.27;;;11.70;99.90;11.60;96525.00;;;;5069359;28;20200;-68
2021/09/20 01:52:34;;;;;;;7.00;6.00;;;11.70;99.90;11.50;96513.00;;;;5078088;28;20222;-74
2021/09/20 01:55:22;;;;;;;7.27;5.50;;;11.70;99.90;11.50;96514.00;;;;5082204;28;20195;-69
2021/09/20 01:58:13;;;;;;;6.00;5.37;;;11.70;99.90;11.40;96530.00;;;;5088274;28;20232;-71
2021/09/20 02:01:01;;;;;;;7.23;5.93;;;11.60;99.90;11.30;96520.00;;;;5066508;28;20211;-69
2021/09/20 02:03:50;;;;;;;8.53;6.17;;;11.60;99.90;11.40;96513.00;;;;5072558;28;20269;-72
2021/09/20 02:06:39;;;;;;;7.47;5.07;;;11.50;99.90;11.40;96515.00;;;;5064709;28;20214;-68
2021/09/20 02:09:28;;;;;;;6.40;5.80;;;11.50;99.90;11.40;96518.00;;;;5065317;28;20199;-72
2021/09/20 02:12:17;;;;;;;6.27;5.60;;;11.50;99.90;11.40;96518.00;;;;5065041;28;20215;-69
2021/09/20 02:15:10;;;;;;;7.93;5.97;;;11.50;99.90;11.40;96521.00;;;;5071979;28;20199;-70
2021/09/20 02:17:59;;;;;;;6.80;5.93;;;11.50;99.90;11.30;96519.00;;;;5064682;28;20220;-71
2021/09/20 02:20:48;;;;;;;6.33;5.63;;;11.50;99.90;11.20;96529.00;;;;5063962;28;20200;-73
2021/09/20 02:23:38;;;;;;;6.67;5.60;;;11.40;99.90;11.20;96522.00;;;;5064042;28;20200;-69
2021/09/20 02:26:27;;;;;;;6.03;5.43;;;11.40;99.90;11.30;96515.00;;;;5064370;28;20219;-71
2021/09/20 02:29:16;;;;;;;7.43;5.60;;;11.40;99.90;11.20;96525.00;;;;5064981;28;20223;-73
2021/09/20 02:32:07;;;;;;;7.27;6.00;;;11.40;99.90;11.30;96530.00;;;;5065658;28;20224;-69
2021/09/20 02:34:56;;;;;;;7.57;5.57;;;11.40;99.90;11.30;96527.00;;;;5065046;28;20219;-70
2021/09/20 02:37:44;;;;;;;5.73;4.63;;;11.40;99.90;11.30;96525.00;;;;5064128;28;20239;-69
2021/09/20 02:40:33;;;;;;;5.33;4.50;;;11.40;99.90;11.30;96524.00;;;;5071535;28;20658;-72
2021/09/20 02:43:23;;;;;;;5.47;4.97;;;11.40;99.90;11.30;96528.00;;;;5068697;28;20242;-68
2021/09/20 02:46:12;;;;;;;5.90;4.40;;;11.40;99.90;11.30;96526.00;;;;5065366;28;20235;-71
2021/09/20 02:49:02;;;;;;;5.90;4.63;;;11.40;99.90;11.30;96531.00;;;;5069250;28;20222;-71
2021/09/20 02:51:51;;;;;;;5.73;4.47;;;11.40;99.90;11.30;96545.00;;;;5069257;28;20231;-71
2021/09/20 02:54:39;;;;;;;4.90;3.90;;;11.40;99.90;11.20;96539.00;;;;5068648;28;20211;-72
2021/09/20 02:57:28;;;;;;;4.67;4.13;;;11.40;99.90;11.20;96545.00;;;;5082112;28;20207;-69
2021/09/20 03:00:18;;;;;;;5.10;4.17;;;11.30;99.90;11.20;96549.00;;;;5067777;28;20196;-69
2021/09/20 03:03:07;;;;;;;5.57;3.90;;;11.30;99.90;11.20;96548.00;;;;5068919;28;20228;-70
2021/09/20 03:05:57;;;;;;;3.37;3.07;;;11.30;99.90;11.10;96544.00;;;;5068571;28;20203;-71
2021/09/20 03:08:46;;;;;;;4.37;2.50;;;11.30;99.90;11.10;96548.00;;;;5068186;28;20207;-71
2021/09/20 03:11:35;;;;;;;4.30;2.87;;;11.30;99.90;11.10;96548.00;;;;5068084;28;20224;-69
2021/09/20 03:14:24;;;;;;;2.80;2.50;;;11.20;99.90;11.20;96542.00;;;;5080009;28;20203;-70
2021/09/20 03:17:14;;;;;;;2.80;2.60;;;11.20;99.90;11.10;96549.00;;;;5068041;28;20211;-73
2021/09/20 03:20:05;;;;;;;2.67;2.23;;;11.20;99.90;11.10;96547.00;;;;5067924;28;20223;-69
2021/09/20 03:22:55;;;;;;;2.43;2.23;;;11.20;99.90;11.20;96551.00;;;;5084580;28;20242;-70
2021/09/20 03:25:44;;;;;;;1.80;1.70;;;11.20;99.90;11.10;96560.00;;;;5082318;28;20675;-70
2021/09/20 03:28:32;;;;;;;2.00;1.40;;;11.20;99.90;11.20;96560.00;;;;5069843;28;20204;-75
2021/09/20 03:31:21;;;;;;;2.00;1.50;;;11.20;99.90;11.20;96553.00;;;;5069071;28;20258;-70
2021/09/20 03:34:10;;;;;;;1.57;1.47;;;11.20;99.90;11.10;96560.00;;;;5068882;28;20208;-69
2021/09/20 03:36:59;;;;;;;1.37;1.27;;;10.10;99.90;11.10;96553.00;;;;5070686;28;20206;-73
2021/09/20 03:39:49;;;;;;;1.20;1.10;;;11.20;99.90;11.10;96564.00;;;;5073702;28;20219;-69
2021/09/20 03:42:38;;;;;;;1.30;1.00;;;11.20;99.90;11.10;96571.00;;;;5068465;28;20224;-69
2021/09/20 03:45:27;;;;;;;2.70;2.07;;;11.20;99.90;11.00;96560.00;;;;5068339;28;20207;-75
2021/09/20 03:48:16;;;;;;;1.17;1.07;;;11.20;99.90;11.00;96566.00;;;;5068698;28;20203;-74
2021/09/20 03:51:06;;;;;;;1.50;1.40;;;11.20;99.90;11.00;96567.00;;;;5072195;28;20200;-70
2021/09/20 03:53:55;;;;;;;1.80;1.47;;;11.10;99.90;11.00;96572.00;;;;5068129;28;20590;-69
2021/09/20 03:56:45;;;;;;;1.43;1.27;;;11.10;99.90;11.00;96568.00;;;;5075896;28;20202;-68
2021/09/20 03:59:34;;;;;;;1.50;1.40;;;11.10;99.90;11.00;96568.00;;;;5073332;28;20298;-68
2021/09/20 04:02:23;;;;;;;2.70;1.73;;;11.10;99.90;11.00;96566.00;;;;5072696;28;20216;-70
2021/09/20 04:05:12;;;;;;;1.27;1.17;;;11.10;99.90;10.90;96576.00;;;;5077434;28;20731;-72
2021/09/20 04:08:01;;;;;;;1.23;1.13;;;11.10;99.90;10.90;96584.00;;;;5074879;28;20219;-69
2021/09/20 04:10:52;;;;;;;2.03;1.90;;;11.10;99.90;11.00;96580.00;;;;5068202;28;20622;-70
2021/09/20 04:13:42;;;;;;;2.97;2.30;;;11.00;99.90;11.00;96570.00;;;;5079291;28;20202;-72
2021/09/20 04:16:31;;;;;;;2.23;2.00;;;11.10;99.90;11.00;96578.00;;;;5083703;28;20203;-72
2021/09/20 04:19:20;;;;;;;1.50;1.40;;;11.00;99.90;10.90;96584.00;;;;5070305;28;20223;-72
2021/09/20 04:22:09;;;;;;;3.17;2.10;;;11.00;99.90;10.90;96592.00;;;;5072375;28;20761;-69
2021/09/20 04:24:58;;;;;;;3.70;1.80;;;11.00;99.90;10.90;96592.00;;;;5077098;28;20208;-69
2021/09/20 04:27:47;;;;;;;1.63;1.50;;;11.00;99.90;10.90;96595.00;;;;5071031;28;20769;-69
2021/09/20 04:30:37;;;;;;;1.87;1.73;;;11.00;99.90;10.90;96592.00;;;;5090970;28;20214;-70
2021/09/20 04:33:25;;;;;;;2.43;2.23;;;11.00;99.90;10.90;96598.00;;;;5073271;28;20223;-70
2021/09/20 04:36:14;;;;;;;1.50;1.40;;;11.00;99.90;10.80;96598.00;;;;5082048;28;20199;-72
2021/09/20 04:39:04;;;;;;;1.93;1.73;;;11.00;99.90;10.70;96601.00;;;;5065953;28;20228;-70
2021/09/20 04:41:52;;;;;;;1.73;1.63;;;10.90;99.90;10.70;96614.00;;;;5075054;28;20222;-68
2021/09/20 04:44:42;;;;;;;1.93;1.67;;;10.90;99.90;10.30;96613.00;;;;5074826;28;20204;-74
2021/09/20 04:47:32;;;;;;;1.73;1.60;;;10.80;99.90;10.30;96614.00;;;;5086600;28;20195;-69
2021/09/20 04:50:21;;;;;;;1.73;1.30;;;10.70;99.90;10.30;96607.00;;;;5086477;28;21042;-73
2021/09/20 04:53:10;;;;;;;1.93;1.73;;;10.60;99.90;10.30;96614.00;;;;5086037;28;20216;-69
2021/09/20 04:55:59;;;;;;;3.80;1.83;;;10.60;99.90;10.20;96631.00;;;;5071636;28;20210;-73
2021/09/20 04:58:48;;;;;;;2.43;2.23;;;10.50;99.90;10.20;96624.00;;;;5086646;28;20198;-70
2021/09/20 05:01:36;;;;;;;5.40;2.73;;;10.50;99.90;10.00;96615.00;;;;5080494;28;20241;-73
2021/09/20 05:04:27;;;;;;;2.77;2.57;;;10.40;99.90;10.10;96639.00;;;;5086954;28;20212;-73
2021/09/20 05:07:15;;;;;;;4.00;2.73;;;10.30;99.90;10.00;96630.00;;;;5086231;28;20200;-72
2021/09/20 05:10:05;;;;;;;2.27;2.07;;;10.30;99.90;9.90;96639.00;;;;5085714;28;20214;-70
2021/09/20 05:12:54;;;;;;;2.50;2.30;;;10.20;99.90;10.00;96639.00;;;;5086602;28;20234;-69
2021/09/20 05:15:43;;;;;;;4.13;2.60;;;10.20;99.90;9.90;96649.00;;;;5071867;28;20998;-69
2021/09/20 05:18:32;;;;;;;2.63;2.43;;;10.20;99.90;9.90;96647.00;;;;5083771;28;20203;-69
2021/09/20 05:21:22;;;;;;;3.27;2.63;;;10.20;99.90;10.00;96653.00;;;;5077014;28;20221;-69
2021/09/20 05:24:11;;;;;;;2.80;2.50;;;10.20;99.90;10.10;96665.00;;;;5084982;28;20207;-69
2021/09/20 05:27:00;;;;;;;3.03;2.73;;;10.10;99.90;10.10;96660.00;;;;5086597;28;20694;-73
2021/09/20 05:29:49;;;;;;;2.97;2.60;;;10.20;99.90;10.10;96663.00;;;;5086291;28;20214;-69
2021/09/20 05:32:37;;;;;;;3.00;2.70;;;10.20;99.90;10.20;96671.00;;;;5086453;28;20219;-69
2021/09/20 05:35:27;;;;;;;2.83;2.63;;;10.20;99.90;10.30;96678.00;;;;5086776;28;20196;-71
2021/09/20 05:38:18;;;;;;;3.07;2.77;;;10.30;99.90;10.30;96685.00;;;;5086649;28;20207;-69
2021/09/20 05:41:08;;;;;;;3.30;3.00;;;10.30;99.90;10.40;96689.00;;;;5085578;28;20235;-70
2021/09/20 05:43:57;;;;;;;4.40;3.50;;;10.40;99.90;10.40;96688.00;;;;5086500;28;20191;-70
2021/09/20 05:46:46;;;;;;;4.87;3.10;;;10.40;99.90;10.50;96693.00;;;;5082407;28;20200;-67
2021/09/20 05:49:34;;;;;;;3.80;3.23;;;8.80;99.90;10.50;96698.00;;;;5065429;28;20250;-72
2021/09/20 05:52:25;;;;;;;5.43;3.37;;;10.50;99.90;10.50;96702.00;;;;5085487;28;20219;-69
2021/09/20 05:55:16;;;;;;;5.07;4.17;;;10.60;99.90;10.50;96705.00;;;;5087067;28;20700;-69
2021/09/20 05:58:05;;;;;;;3.43;3.13;;;10.60;99.90;10.50;96710.00;;;;5085299;28;20200;-73
2021/09/20 06:00:54;;;;;;;3.83;3.47;;;10.60;99.90;10.50;96711.00;;;;5085244;28;20273;-68
2021/09/20 06:03:42;;;;;;;3.70;3.27;;;10.60;99.90;10.60;96713.00;;;;5075113;28;20207;-69
2021/09/20 06:06:31;;;;;;;3.70;3.13;;;10.60;99.90;10.60;96714.00;;;;5079668;28;20192;-72
2021/09/20 06:09:20;;;;;;;5.70;3.77;;;10.60;99.90;10.70;96717.00;;;;5064951;28;20200;-70
2021/09/20 06:12:10;;;;;;;3.20;2.90;;;10.70;99.90;10.70;96727.00;;;;5065305;28;20216;-70
2021/09/20 06:14:59;;;;;;;3.27;2.93;;;10.70;99.90;10.70;96722.00;;;;5064752;28;20199;-69
2021/09/20 06:17:48;;;;;;;3.20;2.73;;;10.70;99.90;10.70;96728.00;;;;5083616;28;20195;-70
2021/09/20 06:20:37;;;;;;;3.33;3.03;;;10.80;99.90;10.70;96725.00;;;;5085289;28;20226;-72
2021/09/20 06:23:26;;;;;;;3.97;3.03;;;10.80;99.90;10.70;96727.00;;;;5085165;28;20218;-68
2021/09/20 06:26:18;;;;;;;3.47;3.17;;;10.80;99.90;10.70;96734.00;;;;5088822;28;20206;-69
2021/09/20 06:29:09;;;;;;;3.40;3.07;;;10.80;99.90;10.70;96739.00;;;;5069087;28;20713;-68
2021/09/20 06:31:58;;;;;;;2.73;2.43;;;10.80;99.90;10.70;96741.00;;;;5086136;28;20226;-74
2021/09/20 06:34:47;;;;;;;2.43;2.20;;;10.80;99.90;10.60;96745.00;;;;5089207;28;20730;-73
2021/09/20 06:37:36;;;;;;;4.67;3.07;;;10.80;99.90;10.70;96736.00;;;;5088741;28;20203;-70
2021/09/20 06:40:25;;;;;;;2.60;2.40;;;10.70;99.90;10.70;96752.00;;;;5075000;28;20226;-69
2021/09/20 06:43:14;;;;;;;2.37;2.17;;;10.70;99.90;10.50;96750.00;;;;5088498;28;20693;-74
2021/09/20 06:46:04;;;;;;;5.33;3.10;;;10.70;99.90;10.60;96759.00;;;;5074637;28;20192;-70
2021/09/20 06:48:55;;;;;;;3.37;2.73;;;10.70;99.90;10.50;96755.00;;;;5077775;28;20667;-70
2021/09/20 06:51:44;;;;;;;2.67;2.47;;;10.70;99.90;10.40;96749.00;;;;5083364;28;20231;-69
2021/09/20 06:54:33;;;;;;;3.57;3.27;;;10.60;99.90;10.20;96752.00;;;;5069888;28;20641;-68
2021/09/20 06:57:22;;;;;;;3.00;2.43;;;10.60;99.90;10.20;96763.00;;;;5068935;28;20200;-70
2021/09/20 07:00:14;;;;;;;3.40;3.10;;;10.50;99.90;10.40;96756.00;;;;5068359;28;20228;-72
2021/09/20 07:03:04;;;;;;;4.47;2.50;;;10.50;99.90;10.60;96773.00;;;;5082635;28;20621;-71
2021/09/20 07:05:53;;;;;;;3.40;3.07;;;10.50;99.90;10.70;96767.00;;;;5099089;28;20226;-72
2021/09/20 07:08:42;;;;;;;3.40;3.00;;;10.60;99.90;10.80;96784.00;;;;5095782;28;20196;-69
2021/09/20 07:11:31;;;;;;;3.27;2.80;;;10.70;99.90;10.90;96787.00;;;;5075516;28;20227;-68
2021/09/20 07:14:20;;;;;;;3.07;2.60;;;10.80;99.90;10.90;96780.00;;;;5087256;28;20667;-67
2021/09/20 07:17:10;;;;;;;3.67;2.67;;;10.80;99.90;10.90;96787.00;;;;5091594;28;20191;-69
2021/09/20 07:20:08;;;;;;;3.97;3.27;;;10.90;99.90;10.90;96786.00;;;;5077707;28;20203;-68
2021/09/20 07:22:56;;;;;;;3.87;2.40;;;10.90;99.90;10.90;96797.00;;;;5074084;28;20234;-69
2021/09/20 07:25:45;;;;;;;4.27;2.30;;;11.00;99.90;11.00;96797.00;;;;5088703;28;20555;-68
2021/09/20 07:28:34;;;;;;;2.77;2.50;;;11.00;99.90;11.00;96794.00;;;;5072185;28;20425;-69
2021/09/20 07:31:23;;;;;;;3.23;2.83;;;11.00;99.90;10.90;96802.00;;;;5081619;28;20231;-69
2021/09/20 07:34:12;;;;;;;2.80;2.57;;;11.00;99.90;10.60;96799.00;;;;5087712;28;20199;-71
2021/09/20 07:37:02;;;;;;;2.83;2.53;;;10.90;99.90;10.70;96803.00;;;;5088653;28;20218;-68
2021/09/20 07:39:51;;;;;;;2.63;2.43;;;10.90;99.90;10.70;96809.00;;;;5086996;28;20199;-69
2021/09/20 07:42:40;;;;;;;3.03;2.70;;;10.90;99.90;10.40;96801.00;;;;5087938;28;20227;-70
2021/09/20 07:45:31;;;;;;;3.07;2.77;;;10.90;99.90;10.40;96817.00;;;;5089083;28;20203;-72
2021/09/20 07:48:20;;;;;;;3.00;2.60;;;10.70;99.90;10.40;96815.00;;;;5074807;28;20200;-68
2021/09/20 07:51:12;;;;;;;2.57;2.37;;;10.70;99.90;10.40;96814.00;;;;5085553;28;20207;-69
2021/09/20 07:54:03;;;;;;;4.47;3.07;;;10.70;99.90;10.80;96825.00;;;;5087826;28;20210;-68
2021/09/20 07:56:52;;;;;;;3.60;3.20;;;10.80;99.90;10.40;96827.00;;;;5087808;28;20211;-68
2021/09/20 07:59:40;;;;;;;2.80;2.60;;;10.80;99.90;10.30;96832.00;;;;5068568;28;20211;-71
2021/09/20 08:02:29;;;;;;;3.63;3.27;;;10.80;99.90;10.40;96828.00;;;;5068008;28;20228;-71
2021/09/20 08:05:18;;;;;;;3.83;3.40;;;10.80;99.90;10.90;96833.00;;;;5087867;28;20206;-68
2021/09/20 08:08:08;;;;;;;3.70;3.40;;;10.80;99.90;11.10;96841.00;;;;5087710;28;20666;-70
2021/09/20 08:10:58;;;;;;;3.23;2.93;;;10.90;99.90;11.20;96844.00;;;;5085966;28;20202;-71
2021/09/20 08:13:47;;;;;;;3.33;2.90;;;11.10;99.90;11.10;96838.00;;;;5087183;28;20207;-73
2021/09/20 08:16:36;;;;;;;4.20;3.27;;;11.10;99.90;11.00;96842.00;;;;5085940;28;20198;-67
2021/09/20 08:19:25;;;;;;;3.20;2.90;;;11.10;99.90;11.30;96843.00;;;;5085456;28;20207;-73
2021/09/20 08:22:14;;;;;;;2.67;2.47;;;11.20;99.90;11.60;96839.00;;;;5086871;28;20254;-70
2021/09/20 08:25:03;;;;;;;3.30;3.00;;;11.30;99.90;11.80;96848.00;;;;5087458;28;20206;-74
2021/09/20 08:27:54;;;;;;;3.60;3.27;;;11.50;99.90;12.00;96855.00;;;;5076517;28;20365;-68
2021/09/20 08:30:43;;;;;;;2.63;2.43;;;11.60;99.90;12.10;96860.00;;;;5079120;28;20200;-68
2021/09/20 08:33:32;;;;;;;3.07;2.77;;;11.80;99.90;12.20;96863.00;;;;5069968;28;20198;-69
2021/09/20 08:36:21;;;;;;;3.33;3.03;;;11.90;99.90;12.20;96866.00;;;;5085811;28;20199;-68
2021/09/20 08:39:10;;;;;;;2.97;2.77;;;12.40;99.90;12.20;96871.00;;;;5076331;28;20695;-71
2021/09/20 08:41:58;;;;;;;3.07;2.77;;;12.10;99.90;12.40;96874.00;;;;5085815;28;20227;-70
2021/09/20 08:44:49;;;;;;;3.03;2.73;;;12.10;99.90;12.40;96879.00;;;;5088119;28;20198;-69
2021/09/20 08:47:42;;;;;;;3.67;2.67;;;12.20;99.90;12.60;96875.00;;;;5087098;28;20550;-71
2021/09/20 08:50:35;;;;;;;2.73;2.53;;;12.40;99.90;12.80;96871.00;;;;5085132;28;20203;-73
2021/09/20 08:53:24;;;;;;;3.93;2.83;;;12.50;99.90;12.90;96866.00;;;;5085198;28;20238;-72
2021/09/20 08:56:13;;;;;;;3.20;2.90;;;12.60;99.90;13.20;96872.00;;;;5086396;28;20199;-73
2021/09/20 08:59:02;;;;;;;2.80;2.60;;;12.80;99.90;13.40;96873.00;;;;5074649;28;20210;-69
2021/09/20 09:01:55;;;;;;;3.37;3.07;;;12.90;99.90;13.70;96868.00;;;;5074574;28;20227;-71
2021/09/20 09:04:44;;;;;;;3.20;2.70;;;13.20;99.90;14.00;96890.00;;;;5085582;28;20208;-69
2021/09/20 09:07:33;;;;;;;3.87;2.83;;;13.40;99.90;13.40;96897.00;;;;5083398;28;20588;-73
2021/09/20 09:10:24;;;;;;;4.03;2.67;;;13.50;99.90;13.20;96893.00;;;;5064646;28;20598;-69
2021/09/20 09:13:13;;;;;;;3.07;2.77;;;13.40;99.90;13.20;96891.00;;;;5081941;28;20234;-70
2021/09/20 09:16:14;;;;;;;4.00;3.60;;;13.30;99.90;13.40;96890.00;;;;5079043;28;20192;-69
2021/09/20 09:19:08;;;;;;;2.50;2.30;;;13.30;99.90;13.40;96896.00;;;;5071371;28;20311;-70
2021/09/20 09:21:57;;;;;;;3.43;2.67;;;13.30;99.90;13.20;96893.00;;;;5065011;28;20220;-70
2021/09/20 09:24:59;;;;;;;3.10;2.80;;;13.30;99.90;13.50;96898.00;;;;5075367;28;20218;-67
2021/09/20 09:27:51;;;;;;;3.50;2.97;;;13.30;99.90;13.40;96890.00;;;;5086681;28;20203;-72
2021/09/20 09:30:44;;;;;;;3.80;2.97;;;13.30;99.90;13.60;96893.00;;;;5064858;28;20207;-68
2021/09/20 09:33:39;;;;;;;3.27;2.97;;;13.40;99.90;13.40;96900.00;;;;5065701;28;20211;-68
2021/09/20 09:36:33;;;;;;;3.87;2.97;;;13.40;99.90;13.50;96903.00;;;;5078280;28;20206;-70
2021/09/20 09:39:29;;;;;;;3.50;3.20;;;13.40;99.90;13.30;96903.00;;;;5085131;28;20195;-70
2021/09/20 09:42:24;;;;;;;2.93;2.73;;;13.40;99.90;13.50;96899.00;;;;5082020;28;21120;-71
2021/09/20 09:45:18;;;;;;;5.30;3.13;;;13.40;99.90;13.80;96892.00;;;;5079039;28;20322;-72
2021/09/20 09:48:14;;;;;;;3.73;2.97;;;13.50;99.90;13.20;96884.00;;;;5081400;28;20203;-69
2021/09/20 09:51:04;;;;;;;3.00;2.80;;;13.60;99.90;12.50;96893.00;;;;5083591;28;20210;-69
2021/09/20 09:54:07;;;;;;;2.87;2.67;;;13.30;99.90;12.50;96890.00;;;;5085775;28;20685;-69
2021/09/20 09:57:18;;;;;;;3.93;3.63;;;13.10;99.90;12.60;96891.00;;;;5084171;28;20668;-71
2021/09/20 10:00:09;;;;;;;4.43;3.17;;;13.00;99.90;12.50;96892.00;;;;5084667;28;20200;-70
2021/09/20 10:03:05;;;;;;;5.10;3.60;;;12.90;99.90;12.80;96908.00;;;;5084518;28;20235;-69
2021/09/20 10:05:59;;;;;;;3.87;3.53;;;12.80;99.90;12.70;96899.00;;;;5085229;28;20199;-73
2021/09/20 10:08:49;;;;;;;4.03;3.23;;;12.90;99.90;12.40;96888.00;;;;5075228;28;20203;-73
2021/09/20 10:11:42;;;;;;;3.87;3.57;;;12.80;99.90;12.90;96896.00;;;;5084030;28;20234;-70
2021/09/20 10:14:31;;;;;;;3.50;3.20;;;12.80;99.90;13.00;96899.00;;;;5084552;28;20214;-70
2021/09/20 10:17:20;;;;;;;3.90;3.60;;;12.80;99.90;13.10;96896.00;;;;5083934;28;20689;-69
2021/09/20 10:20:15;;;;;;;4.43;4.03;;;12.90;99.90;13.10;96902.00;;;;5064785;28;20234;-72
2021/09/20 10:23:04;;;;;;;3.87;3.43;;;13.00;99.90;13.30;96895.00;;;;5073726;28;20231;-71
2021/09/20 10:25:53;;;;;;;4.27;3.70;;;13.10;99.90;13.20;96903.00;;;;5079166;28;20218;-69
2021/09/20 10:28:43;;;;;;;5.43;3.77;;;13.20;99.90;12.80;96902.00;;;;5094296;28;20196;-69
2021/09/20 10:31:34;;;;;;;2.77;2.57;;;13.20;99.90;12.70;96888.00;;;;5077977;28;20219;-69
2021/09/20 10:34:32;;;;;;;4.10;3.80;;;13.00;99.90;12.70;96896.00;;;;5059849;28;20191;-72
2021/09/20 10:37:26;;;;;;;3.90;3.60;;;13.00;99.90;13.50;96890.00;;;;5079695;28;20218;-67
2021/09/20 10:40:14;;;;;;;4.20;3.80;;;13.10;99.90;13.20;96889.00;;;;5076203;28;20227;-69
2021/09/20 10:43:07;;;;;;;4.67;4.23;;;13.10;99.90;13.60;96905.00;;;;5079989;28;20458;-71
2021/09/20 10:45:58;;;;;;;8.10;5.70;;;13.30;99.90;13.70;96908.00;;;;5072863;28;20289;-69
2021/09/20 10:48:54;;;;;;;7.83;4.63;;;13.40;99.90;13.60;96913.00;;;;5073591;28;20195;-69
2021/09/20 10:51:43;;;;;;;7.10;4.97;;;13.50;99.90;13.60;96904.00;;;;5082747;28;20227;-70
2021/09/20 10:54:32;;;;;;;5.97;5.37;;;13.50;99.90;13.70;96901.00;;;;5076214;28;20715;-71
2021/09/20 10:57:20;;;;;;;5.93;4.70;;;13.60;99.90;13.90;96904.00;;;;5067674;28;20192;-69
2021/09/20 11:00:22;;;;;;;8.43;3.53;;;13.60;99.90;13.70;96914.00;;;;5065461;28;20203;-68
2021/09/20 11:03:42;;;;;;;3.83;3.37;;;13.70;99.90;13.60;96916.00;;;;5082585;28;20226;-68
2021/09/20 11:06:33;;;;;;;3.70;3.40;;;13.70;99.90;13.70;96896.00;;;;5076965;28;20204;-69
2021/09/20 11:09:40;;;;;;;10.30;3.33;;;13.60;99.90;14.10;96927.00;;;;5070438;28;20417;-72
2021/09/20 11:12:29;;;;;;;4.33;3.50;;;13.70;99.90;13.90;96930.00;;;;5075321;28;20259;-69
2021/09/20 11:15:20;;;;;;;8.70;4.80;;;13.80;99.90;13.80;96926.00;;;;5075557;28;20207;-71
2021/09/20 11:18:09;;;;;;;3.33;2.93;;;13.70;99.90;13.50;96938.00;;;;5070392;28;20474;-72
2021/09/20 11:21:06;;;;;;;3.30;3.00;;;13.70;99.90;13.60;96933.00;;;;5073381;28;20391;-69
2021/09/20 11:23:55;;;;;;;3.77;3.13;;;13.60;99.90;13.70;96937.00;;;;5088179;28;20598;-72
2021/09/20 11:26:43;;;;;;;5.60;3.27;;;13.60;99.90;13.60;96936.00;;;;5081983;28;20207;-69
2021/09/20 11:29:33;;;;;;;4.40;3.00;;;13.60;99.90;13.60;96935.00;;;;5082585;28;20211;-72
2021/09/20 11:32:22;;;;;;;3.60;3.30;;;13.60;99.90;13.50;96939.00;;;;5078287;28;20707;-69
2021/09/20 11:35:12;;;;;;;4.87;4.37;;;13.50;99.90;13.50;96930.00;;;;5077990;28;20199;-69
2021/09/20 11:38:04;;;;;;;4.13;3.60;;;13.50;99.90;13.20;96937.00;;;;5089140;28;20211;-69
2021/09/20 11:40:53;;;;;;;4.80;4.23;;;13.40;99.90;12.60;96938.00;;;;5083074;28;20748;-71
2021/09/20 11:43:44;;;;;;;6.67;4.00;;;13.30;99.90;12.90;96938.00;;;;5080810;28;20222;-69
2021/09/20 11:46:33;;;;;;;6.20;4.37;;;13.10;99.90;13.10;96929.00;;;;5084270;28;20196;-72
2021/09/20 11:49:22;;;;;;;4.80;4.10;;;13.10;99.90;13.10;96942.00;;;;5084611;28;20205;-69
2021/09/20 11:52:11;;;;;;;5.03;4.53;;;13.10;99.90;13.30;96941.00;;;;5084835;28;20603;-68
2021/09/20 11:55:02;;;;;;;3.83;3.53;;;13.10;99.90;13.20;96938.00;;;;5085548;28;20492;-71
2021/09/20 11:57:53;;;;;;;6.57;4.30;;;13.10;99.90;12.50;96938.00;;;;5083642;28;20588;-70
2021/09/20 12:00:46;;;;;;;5.63;4.17;;;13.00;99.90;12.30;96930.00;;;;5085892;28;20207;-71
2021/09/20 12:03:34;;;;;;;4.43;4.03;;;12.80;99.90;12.60;96949.00;;;;5084876;28;20234;-69
2021/09/20 12:06:32;;;;;;;5.33;4.47;;;12.70;99.90;12.70;96938.00;;;;5083892;28;20206;-68
2021/09/20 12:09:20;;;;;;;4.40;3.87;;;12.70;99.90;12.10;96941.00;;;;5079045;28;20198;-69
2021/09/20 12:12:11;;;;;;;4.20;3.80;;;12.60;99.90;12.20;96939.00;;;;5082924;28;20695;-68
2021/09/20 12:15:05;;;;;;;4.27;3.83;;;12.50;99.90;12.20;96934.00;;;;5082505;28;20602;-70
2021/09/20 12:18:00;;;;;;;3.90;3.50;;;12.50;99.90;12.20;96936.00;;;;5086977;28;20216;-69
2021/09/20 12:20:52;;;;;;;6.70;4.60;;;12.40;99.90;12.20;96943.00;;;;5066326;28;20211;-71
2021/09/20 12:23:44;;;;;;;4.80;4.40;;;12.40;99.90;12.10;96946.00;;;;5067708;28;20706;-68
2021/09/20 12:26:35;;;;;;;5.83;4.97;;;12.40;99.90;11.90;96952.00;;;;5083745;28;20191;-69
2021/09/20 12:29:25;;;;;;;5.40;4.93;;;12.30;99.90;12.10;96955.00;;;;5081928;28;20570;-69
2021/09/20 12:32:21;;;;;;;5.10;4.60;;;12.30;99.90;11.90;96936.00;;;;5067988;28;20588;-69
2021/09/20 12:35:10;;;;;;;6.20;4.60;;;12.30;99.90;12.00;96955.00;;;;5083225;28;20217;-68
2021/09/20 12:38:29;;;;;;;5.43;4.30;;;12.20;99.90;11.90;96950.00;;;;5079321;28;20219;-70